createdAt,value
2023-05-21T00:02:21.387Z,15.07
2023-05-21T00:04:49.001Z,15.00
2023-05-21T00:07:16.624Z,15.57
2023-05-21T00:09:44.217Z,17.70
2023-05-21T00:12:11.781Z,14.02
2023-05-21T00:14:39.385Z,15.57
2023-05-21T00:17:06.967Z,18.15
2023-05-21T00:19:34.544Z,16.13
2023-05-21T00:22:03.670Z,15.85
2023-05-21T00:24:31.271Z,15.27
2023-05-21T00:26:59.655Z,17.00
2023-05-21T00:29:27.793Z,15.90
2023-05-21T00:31:56.013Z,16.50
2023-05-21T00:34:23.728Z,17.77
2023-05-21T00:36:53.354Z,16.33
2023-05-21T00:39:21.172Z,16.65
2023-05-21T00:41:48.816Z,18.30
2023-05-21T00:44:18.325Z,17.48
2023-05-21T00:46:48.766Z,17.83
2023-05-21T00:49:17.050Z,16.10
2023-05-21T00:51:45.248Z,16.70
2023-05-21T00:54:13.094Z,15.43
2023-05-21T00:56:41.380Z,17.80
2023-05-21T00:59:09.170Z,17.83
2023-05-21T01:01:37.227Z,16.23
2023-05-21T01:04:05.119Z,19.25
2023-05-21T01:06:35.764Z,18.50
2023-05-21T01:09:05.450Z,17.40
2023-05-21T01:11:44.717Z,18.83
2023-05-21T01:14:13.514Z,15.30
2023-05-21T01:16:46.334Z,17.73
2023-05-21T01:19:20.803Z,17.42
2023-05-21T01:21:56.742Z,18.27
2023-05-21T01:24:24.450Z,19.17
2023-05-21T01:26:52.919Z,19.42
2023-05-21T01:29:20.772Z,18.02
2023-05-21T01:31:56.656Z,17.23
2023-05-21T01:35:12.895Z,17.85
2023-05-21T01:37:55.241Z,17.42
2023-05-21T01:40:35.398Z,19.55
2023-05-21T01:43:05.713Z,20.73
2023-05-21T01:45:39.320Z,18.35
2023-05-21T01:48:09.346Z,22.38
2023-05-21T01:50:39.166Z,18.30
2023-05-21T01:53:07.036Z,19.95
2023-05-21T01:55:35.712Z,16.33
2023-05-21T01:58:03.534Z,16.83
2023-05-21T02:00:32.615Z,19.25
2023-05-21T02:03:00.453Z,21.92
2023-05-21T02:05:28.270Z,19.90
2023-05-21T02:07:57.021Z,20.50
2023-05-21T02:10:24.568Z,21.00
2023-05-21T02:12:52.524Z,18.08
2023-05-21T02:15:20.235Z,20.05
2023-05-21T02:17:48.122Z,17.95
2023-05-21T02:20:16.187Z,20.33
2023-05-21T02:22:47.350Z,18.92
2023-05-21T02:25:18.233Z,20.08
2023-05-21T02:27:46.934Z,22.75
2023-05-21T02:30:16.110Z,22.65
2023-05-21T02:32:44.776Z,18.50
2023-05-21T02:35:13.480Z,19.58
2023-05-21T02:37:41.387Z,20.90
2023-05-21T02:40:10.173Z,18.20
2023-05-21T02:42:40.110Z,20.30
2023-05-21T02:45:13.447Z,18.70
2023-05-21T02:47:43.502Z,24.40
2023-05-21T02:50:11.387Z,19.42
2023-05-21T02:52:46.782Z,18.80
2023-05-21T02:55:14.494Z,19.70
2023-05-21T02:57:42.046Z,21.23
2023-05-21T03:00:11.479Z,20.75
2023-05-21T03:02:40.796Z,22.63
2023-05-21T03:05:09.699Z,19.80
2023-05-21T03:07:37.266Z,19.70
2023-05-21T03:10:06.489Z,22.60
2023-05-21T03:12:34.057Z,21.35
2023-05-21T03:15:01.659Z,18.25
2023-05-21T03:17:47.539Z,20.83
2023-05-21T03:20:18.561Z,19.70
2023-05-21T03:22:46.578Z,23.77
2023-05-21T03:25:14.639Z,19.70
2023-05-21T03:27:42.299Z,21.58
2023-05-21T03:30:25.731Z,22.17
2023-05-21T03:33:13.977Z,21.85
2023-05-21T03:35:43.605Z,22.67
2023-05-21T03:38:11.424Z,22.10
2023-05-21T03:40:38.974Z,21.95
2023-05-21T03:43:06.868Z,22.67
2023-05-21T03:45:35.018Z,23.35
2023-05-21T03:48:26.121Z,21.48
2023-05-21T03:50:53.954Z,23.10
2023-05-21T03:53:21.585Z,24.02
2023-05-21T03:55:55.270Z,24.42
2023-05-21T03:58:24.858Z,21.10
2023-05-21T04:00:52.574Z,23.52
2023-05-21T04:03:20.250Z,21.73
2023-05-21T04:05:48.652Z,23.08
2023-05-21T04:08:16.331Z,22.42
2023-05-21T04:10:43.966Z,24.33
2023-05-21T04:13:11.515Z,18.50
2023-05-21T04:15:39.198Z,22.45
2023-05-21T04:18:07.345Z,21.08
2023-05-21T04:20:35.029Z,23.20
2023-05-21T04:23:03.425Z,22.45
2023-05-21T04:25:30.995Z,25.08
2023-05-21T04:27:58.622Z,20.85
2023-05-21T04:30:26.210Z,23.45
2023-05-21T04:32:54.810Z,22.63
2023-05-21T04:35:23.368Z,20.30
2023-05-21T04:37:52.061Z,21.10
2023-05-21T04:40:24.229Z,23.83
2023-05-21T04:42:51.869Z,21.75
2023-05-21T04:45:24.526Z,21.95
2023-05-21T04:47:53.315Z,21.52
2023-05-21T04:50:20.921Z,20.17
2023-05-21T04:52:49.413Z,22.55
2023-05-21T04:55:19.062Z,21.33
2023-05-21T04:57:46.633Z,20.08
2023-05-21T05:00:14.718Z,23.40
2023-05-21T05:02:44.065Z,23.35
2023-05-21T05:05:11.903Z,22.50
2023-05-21T05:07:39.499Z,22.20
2023-05-21T05:10:08.088Z,21.02
2023-05-21T05:12:35.621Z,26.20
2023-05-21T05:15:03.236Z,20.30
2023-05-21T05:17:31.912Z,22.13
2023-05-21T05:19:59.687Z,21.45
2023-05-21T05:22:27.746Z,22.08
2023-05-21T05:24:55.342Z,21.65
2023-05-21T05:27:22.945Z,21.35
2023-05-21T05:29:50.783Z,23.02
2023-05-21T05:32:18.342Z,21.42
2023-05-21T05:34:46.712Z,20.98
2023-05-21T05:37:14.389Z,21.70
2023-05-21T05:39:41.985Z,19.98
2023-05-21T05:42:09.685Z,21.15
2023-05-21T05:44:37.311Z,20.92
2023-05-21T05:47:09.099Z,23.00
2023-05-21T05:49:37.219Z,21.30
2023-05-21T05:52:05.702Z,24.38
2023-05-21T05:54:34.015Z,20.90
2023-05-21T05:57:01.676Z,22.35
2023-05-21T05:59:29.368Z,20.50
2023-05-21T06:02:01.404Z,20.75
2023-05-21T06:04:30.300Z,21.65
2023-05-21T06:06:59.687Z,21.80
2023-05-21T06:09:27.371Z,18.10
2023-05-21T06:11:55.735Z,19.48
2023-05-21T06:14:23.469Z,20.58
2023-05-21T06:16:51.129Z,17.45
2023-05-21T06:19:19.306Z,20.33
2023-05-21T06:21:47.167Z,18.58
2023-05-21T06:24:15.397Z,18.20
2023-05-21T06:26:42.971Z,19.38
2023-05-21T06:29:12.598Z,18.58
2023-05-21T06:31:41.885Z,18.48
2023-05-21T06:34:10.602Z,19.30
2023-05-21T06:36:38.329Z,19.50
2023-05-21T06:39:05.980Z,22.02
2023-05-21T06:41:33.659Z,20.17
2023-05-21T06:44:05.880Z,18.73
2023-05-21T06:47:11.599Z,17.83
2023-05-21T06:49:39.177Z,16.98
2023-05-21T06:52:07.071Z,20.33
2023-05-21T06:54:35.112Z,19.33
2023-05-21T06:57:02.838Z,18.15
2023-05-21T06:59:31.997Z,19.05
2023-05-21T07:02:00.921Z,16.40
2023-05-21T07:04:29.497Z,18.17
2023-05-21T07:06:57.122Z,17.63
2023-05-21T07:09:25.309Z,16.67
2023-05-21T07:11:53.291Z,18.45
2023-05-21T07:14:21.824Z,18.02
2023-05-21T07:16:49.401Z,18.13
2023-05-21T07:19:17.004Z,16.02
2023-05-21T07:21:46.257Z,17.80
2023-05-21T07:24:13.825Z,16.45
2023-05-21T07:26:42.119Z,16.75
2023-05-21T07:29:11.523Z,16.92
2023-05-21T07:31:39.316Z,15.23
2023-05-21T07:34:07.673Z,16.55
2023-05-21T07:36:35.318Z,13.55
2023-05-21T07:39:03.849Z,13.32
2023-05-21T07:41:32.664Z,16.27
2023-05-21T07:44:02.889Z,14.75
2023-05-21T07:46:32.742Z,14.85
2023-05-21T07:49:00.422Z,16.02
2023-05-21T07:51:28.799Z,15.57
2023-05-21T07:53:56.488Z,14.55
2023-05-21T07:56:32.364Z,13.38
2023-05-21T07:59:00.178Z,18.75
2023-05-21T08:01:31.404Z,14.20
2023-05-21T08:04:05.924Z,13.82
2023-05-21T08:06:37.438Z,14.55
2023-05-21T08:09:06.241Z,13.38
2023-05-21T08:11:33.878Z,17.98
2023-05-21T08:14:01.428Z,15.13
2023-05-21T08:16:29.036Z,13.15
2023-05-21T08:18:56.652Z,14.07
2023-05-21T08:21:24.332Z,17.17
2023-05-21T08:23:55.148Z,18.90
2023-05-21T08:26:22.709Z,17.80
2023-05-21T08:28:50.277Z,14.02
2023-05-21T08:31:21.340Z,15.45
2023-05-21T08:33:53.892Z,14.38
2023-05-21T08:36:35.988Z,16.65
2023-05-21T08:39:08.982Z,12.82
2023-05-21T08:41:41.332Z,16.83
2023-05-21T08:44:13.298Z,14.57
2023-05-21T08:46:45.092Z,13.18
2023-05-21T08:49:17.442Z,13.95
2023-05-21T08:51:46.982Z,14.52
2023-05-21T08:54:14.774Z,14.73
2023-05-21T08:56:47.045Z,12.70
2023-05-21T08:59:19.601Z,14.20
2023-05-21T09:01:49.971Z,13.05
2023-05-21T09:04:27.566Z,14.85
2023-05-21T09:06:57.797Z,13.93
2023-05-21T09:10:02.616Z,13.15
2023-05-21T09:12:30.517Z,15.57
2023-05-21T09:15:01.224Z,14.35
2023-05-21T09:17:33.560Z,12.75
2023-05-21T09:20:15.903Z,13.68
2023-05-21T09:22:51.388Z,12.65
2023-05-21T09:25:25.293Z,13.18
2023-05-21T09:27:52.895Z,13.55
2023-05-21T09:30:24.109Z,13.35
2023-05-21T09:32:59.516Z,14.00
2023-05-21T09:35:27.937Z,12.02
2023-05-21T09:37:57.302Z,12.45
2023-05-21T09:40:25.068Z,11.80
2023-05-21T09:42:54.856Z,11.15
2023-05-21T09:45:25.447Z,10.70
2023-05-21T09:47:56.543Z,13.18
2023-05-21T09:50:28.270Z,12.40
2023-05-21T09:52:56.119Z,11.93
2023-05-21T09:55:26.507Z,11.57
2023-05-21T09:57:54.084Z,11.00
2023-05-21T10:00:27.562Z,12.77
2023-05-21T10:03:01.666Z,11.93
2023-05-21T10:05:30.778Z,9.50
2023-05-21T10:08:02.236Z,9.70
2023-05-21T10:10:32.247Z,9.80
2023-05-21T10:13:09.112Z,11.68
2023-05-21T10:15:44.917Z,10.57
2023-05-21T10:18:13.870Z,11.15
2023-05-21T10:20:42.553Z,10.43
2023-05-21T10:23:10.425Z,10.27
2023-05-21T10:25:38.234Z,10.80
2023-05-21T10:28:07.039Z,11.10
2023-05-21T10:30:36.246Z,9.02
2023-05-21T10:33:05.701Z,8.90
2023-05-21T10:35:34.168Z,9.82
2023-05-21T10:38:04.454Z,10.65
2023-05-21T10:40:32.303Z,9.77
2023-05-21T10:43:25.096Z,9.10
2023-05-21T10:46:53.233Z,10.47
2023-05-21T10:49:41.908Z,8.93
2023-05-21T10:52:33.864Z,9.02
2023-05-21T10:55:42.786Z,9.27
2023-05-21T10:58:44.593Z,9.10
2023-05-21T11:01:12.684Z,10.68
2023-05-21T11:03:40.709Z,9.63
2023-05-21T11:06:08.484Z,9.50
2023-05-21T11:08:37.164Z,9.25
2023-05-21T11:11:05.158Z,9.38
2023-05-21T11:13:49.263Z,9.18
2023-05-21T11:16:18.247Z,9.13
2023-05-21T11:18:45.850Z,9.73
2023-05-21T11:21:22.859Z,10.45
2023-05-21T11:24:02.890Z,8.43
2023-05-21T11:26:55.144Z,9.15
2023-05-21T11:29:40.242Z,11.30
2023-05-21T11:32:09.560Z,9.35
2023-05-21T11:34:42.134Z,9.57
2023-05-21T11:37:20.673Z,11.95
2023-05-21T11:39:50.466Z,9.20
2023-05-21T11:42:38.672Z,9.00
2023-05-21T11:45:07.166Z,8.88
2023-05-21T11:47:34.774Z,8.70
2023-05-21T11:50:04.120Z,8.43
2023-05-21T11:52:33.127Z,9.48
2023-05-21T11:55:01.126Z,8.20
2023-05-21T11:57:31.088Z,8.85
2023-05-21T12:00:01.323Z,7.75
2023-05-21T12:02:32.640Z,7.88
2023-05-21T12:05:00.695Z,7.82
2023-05-21T12:07:32.125Z,7.57
2023-05-21T12:10:01.019Z,10.38
2023-05-21T12:12:38.557Z,8.38
2023-05-21T12:15:13.826Z,6.95
2023-05-21T12:17:41.490Z,7.78
2023-05-21T12:20:10.633Z,6.78
2023-05-21T12:22:42.678Z,7.53
2023-05-21T12:25:10.731Z,10.27
2023-05-21T12:27:38.633Z,7.50
2023-05-21T12:30:08.257Z,7.40
2023-05-21T12:32:38.071Z,9.52
2023-05-21T12:35:06.233Z,12.35
2023-05-21T12:37:35.796Z,9.23
2023-05-21T12:40:05.099Z,6.88
2023-05-21T12:42:36.540Z,10.43
2023-05-21T12:45:09.190Z,8.05
2023-05-21T12:47:37.182Z,8.30
2023-05-21T12:50:09.579Z,7.55
2023-05-21T12:52:37.309Z,8.60
2023-05-21T12:55:06.219Z,7.80
2023-05-21T12:57:38.792Z,7.15
2023-05-21T13:00:13.119Z,7.50
2023-05-21T13:02:43.553Z,8.25
2023-05-21T13:05:19.500Z,12.38
2023-05-21T13:07:47.712Z,9.77
2023-05-21T13:10:16.790Z,7.22
2023-05-21T13:12:45.409Z,6.80
2023-05-21T13:15:13.114Z,8.10
2023-05-21T13:17:40.864Z,9.40
2023-05-21T13:20:15.156Z,7.88
2023-05-21T13:22:46.716Z,12.85
2023-05-21T13:25:25.052Z,6.95
2023-05-21T13:27:53.817Z,7.03
2023-05-21T13:30:22.333Z,8.55
2023-05-21T13:32:50.274Z,7.07
2023-05-21T13:35:18.172Z,7.05
2023-05-21T13:37:45.960Z,7.85
2023-05-21T13:40:16.522Z,6.78
2023-05-21T13:42:46.930Z,7.13
2023-05-21T13:45:17.616Z,8.45
2023-05-21T13:47:47.008Z,8.48
2023-05-21T13:50:15.793Z,7.10
2023-05-21T13:52:43.497Z,8.02
2023-05-21T13:55:11.181Z,7.68
2023-05-21T13:57:40.441Z,8.52
2023-05-21T14:00:10.496Z,7.72
2023-05-21T14:02:38.259Z,7.43
2023-05-21T14:05:06.446Z,8.40
2023-05-21T14:07:34.357Z,7.35
2023-05-21T14:10:02.819Z,7.93
2023-05-21T14:12:31.041Z,6.75
2023-05-21T14:14:58.736Z,9.27
2023-05-21T14:17:26.314Z,8.75
2023-05-21T14:19:54.892Z,13.20
2023-05-21T14:22:24.724Z,10.15
2023-05-21T14:24:52.873Z,7.50
2023-05-21T14:27:20.771Z,8.40
2023-05-21T14:29:48.514Z,8.27
2023-05-21T14:32:18.423Z,7.00
2023-05-21T14:34:46.094Z,8.77
2023-05-21T14:37:13.707Z,7.72
2023-05-21T14:39:41.291Z,7.65
2023-05-21T14:42:08.898Z,8.45
2023-05-21T14:44:36.536Z,7.70
2023-05-21T14:47:04.354Z,7.55
2023-05-21T14:49:32.013Z,8.30
2023-05-21T14:51:59.788Z,10.15
2023-05-21T14:54:27.621Z,8.13
2023-05-21T14:56:55.614Z,7.43
2023-05-21T14:59:23.388Z,7.65
2023-05-21T15:01:51.253Z,8.00
2023-05-21T15:04:18.962Z,7.47
2023-05-21T15:06:46.770Z,6.85
2023-05-21T15:09:14.407Z,7.70
2023-05-21T15:11:43.908Z,8.00
2023-05-21T15:14:12.137Z,8.75
2023-05-21T15:16:39.850Z,8.13
2023-05-21T15:19:07.742Z,8.68
2023-05-21T15:21:35.380Z,8.75
2023-05-21T15:24:03.136Z,8.25
2023-05-21T15:26:30.819Z,7.47
2023-05-21T15:28:58.348Z,7.68
2023-05-21T15:31:25.924Z,8.10
2023-05-21T15:33:53.683Z,8.63
2023-05-21T15:36:21.246Z,8.27
2023-05-21T15:38:48.817Z,7.72
2023-05-21T15:41:16.399Z,8.45
2023-05-21T15:43:46.024Z,7.93
2023-05-21T15:46:13.590Z,8.48
2023-05-21T15:48:41.154Z,9.45
2023-05-21T15:51:08.793Z,7.18
2023-05-21T15:53:36.485Z,7.50
2023-05-21T15:56:04.372Z,8.63
2023-05-21T15:58:32.117Z,7.38
2023-05-21T16:00:59.818Z,12.45
2023-05-21T16:03:27.489Z,7.95
2023-05-21T16:05:55.298Z,8.05
2023-05-21T16:08:22.926Z,7.50
2023-05-21T16:10:50.612Z,7.55
2023-05-21T16:13:18.166Z,8.18
2023-05-21T16:15:45.973Z,7.30
2023-05-21T16:18:13.546Z,7.35
2023-05-21T16:20:41.161Z,7.18
2023-05-21T16:23:08.871Z,8.10
2023-05-21T16:25:36.924Z,7.47
2023-05-21T16:28:05.072Z,7.85
2023-05-21T16:30:32.762Z,7.72
2023-05-21T16:33:00.536Z,7.47
2023-05-21T16:35:28.170Z,8.60
2023-05-21T16:37:55.888Z,7.95
2023-05-21T16:40:23.856Z,7.95
2023-05-21T16:42:53.167Z,8.48
2023-05-21T16:45:21.512Z,7.72
2023-05-21T16:47:51.149Z,8.20
2023-05-21T16:50:21.818Z,7.05
2023-05-21T16:52:49.368Z,7.85
2023-05-21T16:55:16.938Z,7.10
2023-05-21T16:57:44.620Z,8.02
2023-05-21T17:00:12.917Z,7.10
2023-05-21T17:02:40.627Z,7.38
2023-05-21T17:05:08.404Z,8.98
2023-05-21T17:07:36.076Z,8.30
2023-05-21T17:10:04.707Z,9.02
2023-05-21T17:12:32.308Z,9.90
2023-05-21T17:15:00.306Z,8.00
2023-05-21T17:17:28.156Z,7.35
2023-05-21T17:19:56.669Z,13.15
2023-05-21T17:22:24.371Z,10.25
2023-05-21T17:24:52.007Z,8.15
2023-05-21T17:27:19.590Z,9.18
2023-05-21T17:29:47.125Z,8.80
2023-05-21T17:32:14.961Z,8.60
2023-05-21T17:34:43.642Z,8.60
2023-05-21T17:37:11.259Z,9.07
2023-05-21T17:39:38.806Z,8.75
2023-05-21T17:42:06.467Z,8.50
2023-05-21T17:44:34.047Z,9.15
2023-05-21T17:47:01.708Z,8.32
2023-05-21T17:49:29.239Z,9.10
2023-05-21T17:51:56.834Z,9.18
2023-05-21T17:54:24.367Z,8.00
2023-05-21T17:56:52.075Z,10.02
2023-05-21T17:59:21.112Z,9.18
2023-05-21T18:01:48.713Z,9.05
2023-05-21T18:04:16.376Z,8.70
2023-05-21T18:06:44.010Z,7.50
2023-05-21T18:09:14.187Z,8.75
2023-05-21T18:11:44.941Z,10.15
2023-05-21T18:14:12.593Z,11.98
2023-05-21T18:16:40.940Z,8.60
2023-05-21T18:19:08.673Z,10.75
2023-05-21T18:21:37.157Z,8.35
2023-05-21T18:24:06.298Z,8.95
2023-05-21T18:26:33.840Z,8.93
2023-05-21T18:29:01.522Z,9.25
2023-05-21T18:31:29.096Z,10.93
2023-05-21T18:33:56.701Z,10.40
2023-05-21T18:36:26.537Z,12.23
2023-05-21T18:38:54.161Z,14.15
2023-05-21T18:41:22.365Z,11.52
2023-05-21T18:43:49.951Z,7.88
2023-05-21T18:46:17.640Z,11.15
2023-05-21T18:48:46.244Z,8.70
2023-05-21T18:51:13.855Z,9.73
2023-05-21T18:53:41.378Z,9.65
2023-05-21T18:56:10.223Z,9.57
2023-05-21T18:58:38.318Z,13.48
2023-05-21T19:01:06.675Z,10.10
2023-05-21T19:03:34.209Z,10.20
2023-05-21T19:06:01.810Z,10.50
2023-05-21T19:08:29.360Z,8.75
2023-05-21T19:10:56.937Z,11.23
2023-05-21T19:13:24.652Z,12.73
2023-05-21T19:15:52.393Z,11.85
2023-05-21T19:18:20.017Z,11.35
2023-05-21T19:20:47.574Z,11.38
2023-05-21T19:23:15.226Z,10.98
2023-05-21T19:25:42.827Z,11.10
2023-05-21T19:28:10.432Z,11.50
2023-05-21T19:30:38.202Z,12.52
2023-05-21T19:33:06.363Z,11.68
2023-05-21T19:35:34.088Z,10.02
2023-05-21T19:38:03.391Z,11.18
2023-05-21T19:40:33.389Z,11.10
2023-05-21T19:43:01.232Z,14.23
2023-05-21T19:45:28.857Z,12.77
2023-05-21T19:47:57.230Z,10.63
2023-05-21T19:50:25.003Z,11.50
2023-05-21T19:52:53.401Z,11.38
2023-05-21T19:55:22.796Z,11.55
2023-05-21T19:57:50.557Z,11.18
2023-05-21T20:00:18.846Z,9.40
2023-05-21T20:02:46.674Z,10.57
2023-05-21T20:05:14.468Z,12.43
2023-05-21T20:07:42.261Z,11.13
2023-05-21T20:10:10.055Z,9.90
2023-05-21T20:12:38.526Z,9.68
2023-05-21T20:15:07.105Z,9.30
2023-05-21T20:17:35.853Z,10.23
2023-05-21T20:20:07.372Z,9.85
2023-05-21T20:22:34.909Z,11.50
2023-05-21T20:25:03.783Z,11.02
2023-05-21T20:27:31.934Z,9.20
2023-05-21T20:29:59.561Z,15.35
2023-05-21T20:32:27.517Z,10.93
2023-05-21T20:35:03.320Z,10.15
2023-05-21T20:37:32.742Z,10.43
2023-05-21T20:40:00.454Z,9.15
2023-05-21T20:42:33.902Z,13.70
2023-05-21T20:47:30.066Z,10.35
2023-05-21T20:50:02.709Z,11.13
2023-05-21T20:52:30.830Z,8.77
2023-05-21T20:54:59.559Z,9.50
2023-05-21T20:57:28.249Z,11.23
2023-05-21T20:59:56.152Z,8.70
2023-05-21T21:02:23.800Z,11.73
2023-05-21T21:04:51.367Z,12.40
2023-05-21T21:07:19.637Z,9.65
2023-05-21T21:09:48.992Z,11.40
2023-05-21T21:12:26.131Z,10.70
2023-05-21T21:14:54.931Z,10.32
2023-05-21T21:17:23.160Z,9.80
2023-05-21T21:19:50.896Z,10.95
2023-05-21T21:22:18.628Z,10.35
2023-05-21T21:24:46.970Z,10.50
2023-05-21T21:27:14.549Z,11.82
2023-05-21T21:29:42.273Z,9.85
2023-05-21T21:32:09.830Z,10.57
2023-05-21T21:34:37.366Z,10.73
2023-05-21T21:37:05.580Z,10.68
2023-05-21T21:39:33.154Z,11.02
2023-05-21T21:42:00.827Z,10.65
2023-05-21T21:44:28.471Z,11.30
2023-05-21T21:46:56.047Z,10.45
2023-05-21T21:49:23.585Z,9.65
2023-05-21T21:51:51.396Z,12.80
2023-05-21T21:54:18.907Z,10.73
2023-05-21T21:56:46.501Z,11.07
2023-05-21T21:59:14.116Z,11.63
2023-05-21T22:01:42.777Z,11.02
2023-05-21T22:04:11.224Z,12.27
2023-05-21T22:06:41.354Z,12.30
2023-05-21T22:09:08.936Z,13.88
2023-05-21T22:11:36.585Z,8.85
2023-05-21T22:14:05.276Z,10.85
2023-05-21T22:16:33.913Z,11.45
2023-05-21T22:19:01.563Z,10.32
2023-05-21T22:21:32.735Z,10.18
2023-05-21T22:24:00.569Z,12.43
2023-05-21T22:26:28.085Z,10.73
2023-05-21T22:28:56.019Z,11.90
2023-05-21T22:31:23.580Z,10.85
2023-05-21T22:33:51.164Z,10.73
2023-05-21T22:36:18.756Z,14.75
2023-05-21T22:38:46.360Z,10.38
2023-05-21T22:41:13.954Z,10.18
2023-05-21T22:43:41.572Z,11.60
2023-05-21T22:46:09.104Z,12.27
2023-05-21T22:48:37.063Z,10.85
2023-05-21T22:51:05.430Z,11.57
2023-05-21T22:53:33.813Z,12.85
2023-05-21T22:56:01.604Z,12.00
2023-05-21T22:58:29.209Z,12.85
2023-05-21T23:00:56.847Z,11.20
2023-05-21T23:03:24.463Z,11.57
2023-05-21T23:05:52.291Z,13.27
2023-05-21T23:08:19.943Z,10.80
2023-05-21T23:10:47.530Z,11.68
2023-05-21T23:13:15.130Z,10.15
2023-05-21T23:15:43.591Z,11.50
2023-05-21T23:18:11.681Z,11.38
2023-05-21T23:20:40.914Z,9.90
2023-05-21T23:23:10.153Z,11.70
2023-05-21T23:25:37.912Z,13.07
2023-05-21T23:28:05.676Z,11.65
2023-05-21T23:30:33.215Z,10.00
2023-05-21T23:33:01.047Z,11.10
2023-05-21T23:35:28.728Z,12.10
2023-05-21T23:37:56.387Z,10.82
2023-05-21T23:40:24.017Z,12.45
2023-05-21T23:42:51.634Z,11.90
2023-05-21T23:45:19.196Z,10.82
2023-05-21T23:47:46.911Z,12.30
2023-05-21T23:50:14.649Z,12.05
2023-05-21T23:52:42.272Z,11.32
2023-05-21T23:55:12.501Z,12.32
2023-05-21T23:57:40.904Z,11.95
